createdAt,value
2022-11-28T00:00:16.416Z,7.09
2022-11-28T00:01:16.411Z,7.13
2022-11-28T00:02:16.573Z,7.10
2022-11-28T00:03:16.512Z,7.13
2022-11-28T00:04:16.397Z,7.15
2022-11-28T00:05:16.508Z,7.13
2022-11-28T00:06:16.397Z,7.02
2022-11-28T00:07:16.432Z,7.07
2022-11-28T00:08:16.379Z,7.02
2022-11-28T00:09:16.375Z,6.97
2022-11-28T00:10:16.373Z,7.25
2022-11-28T00:11:16.364Z,7.20
2022-11-28T00:12:16.365Z,7.15
2022-11-28T00:13:16.354Z,7.27
2022-11-28T00:14:16.684Z,7.15
2022-11-28T00:15:16.350Z,7.20
2022-11-28T00:16:16.430Z,7.25
2022-11-28T00:17:16.341Z,7.10
2022-11-28T00:18:16.339Z,7.23
2022-11-28T00:19:16.335Z,7.17
2022-11-28T00:20:16.326Z,7.06
2022-11-28T00:21:16.433Z,7.03
2022-11-28T00:22:16.324Z,7.09
2022-11-28T00:23:16.325Z,7.10
2022-11-28T00:24:16.315Z,7.23
2022-11-28T00:25:16.304Z,7.10
2022-11-28T00:26:16.308Z,7.16
2022-11-28T00:27:16.297Z,7.24
2022-11-28T00:28:16.289Z,7.17
2022-11-28T00:29:16.287Z,7.13
2022-11-28T00:30:16.287Z,7.20
2022-11-28T00:31:16.371Z,7.20
2022-11-28T00:32:16.361Z,7.02
2022-11-28T00:33:16.268Z,7.02
2022-11-28T00:34:16.274Z,6.98
2022-11-28T00:35:16.258Z,6.84
2022-11-28T00:36:16.264Z,6.85
2022-11-28T00:37:16.371Z,6.98
2022-11-28T00:38:16.251Z,6.85
2022-11-28T00:39:16.246Z,6.89
2022-11-28T00:40:16.237Z,6.99
2022-11-28T00:41:16.235Z,7.05
2022-11-28T00:42:16.235Z,6.98
2022-11-28T00:43:16.226Z,6.95
2022-11-28T00:44:16.223Z,6.99
2022-11-28T00:45:16.215Z,6.98
2022-11-28T00:46:16.293Z,6.99
2022-11-28T00:47:16.210Z,6.87
2022-11-28T00:48:16.205Z,6.94
2022-11-28T00:49:16.202Z,6.89
2022-11-28T00:50:16.201Z,6.91
2022-11-28T00:51:16.191Z,7.02
2022-11-28T00:52:16.188Z,7.05
2022-11-28T00:53:16.292Z,6.80
2022-11-28T00:54:16.186Z,6.85
2022-11-28T00:55:16.171Z,6.84
2022-11-28T00:56:16.171Z,6.94
2022-11-28T00:57:16.161Z,6.88
2022-11-28T00:58:16.162Z,6.84
2022-11-28T00:59:16.156Z,6.97
2022-11-28T01:00:16.160Z,6.85
2022-11-28T01:01:16.185Z,6.85
2022-11-28T01:02:16.211Z,6.88
2022-11-28T01:03:16.137Z,6.92
2022-11-28T01:04:16.134Z,7.03
2022-11-28T01:05:16.129Z,6.98
2022-11-28T01:06:16.130Z,6.89
2022-11-28T01:07:16.154Z,6.89
2022-11-28T01:08:16.119Z,6.97
2022-11-28T01:09:16.232Z,6.88
2022-11-28T01:10:16.108Z,7.05
2022-11-28T01:11:16.099Z,6.98
2022-11-28T01:12:16.103Z,6.88
2022-11-28T01:13:16.094Z,6.97
2022-11-28T01:14:16.092Z,6.98
2022-11-28T01:15:16.081Z,6.94
2022-11-28T01:16:16.183Z,6.94
2022-11-28T01:17:16.079Z,6.98
2022-11-28T01:18:16.077Z,6.91
2022-11-28T01:19:16.187Z,6.79
2022-11-28T01:20:16.065Z,6.77
2022-11-28T01:21:16.052Z,6.88
2022-11-28T01:22:16.054Z,6.91
2022-11-28T01:23:16.050Z,6.97
2022-11-28T01:24:16.046Z,6.84
2022-11-28T01:25:16.170Z,6.89
2022-11-28T01:26:16.038Z,6.99
2022-11-28T01:27:16.029Z,7.02
2022-11-28T01:28:16.028Z,6.85
2022-11-28T01:29:16.033Z,7.03
2022-11-28T01:30:16.032Z,7.09
2022-11-28T01:31:16.117Z,7.09
2022-11-28T01:32:16.012Z,7.05
2022-11-28T01:33:16.018Z,7.07
2022-11-28T01:34:15.997Z,6.97
2022-11-28T01:35:16.010Z,7.15
2022-11-28T01:36:15.993Z,7.05
2022-11-28T01:37:15.997Z,6.91
2022-11-28T01:38:15.986Z,6.92
2022-11-28T01:39:15.984Z,6.85
2022-11-28T01:40:15.984Z,6.89
2022-11-28T01:41:16.083Z,7.02
2022-11-28T01:42:15.964Z,6.84
2022-11-28T01:43:15.953Z,6.87
2022-11-28T01:44:15.949Z,6.87
2022-11-28T01:45:15.947Z,6.97
2022-11-28T01:46:15.975Z,6.98
2022-11-28T01:47:15.940Z,7.03
2022-11-28T01:48:15.935Z,6.91
2022-11-28T01:49:15.931Z,6.94
2022-11-28T01:50:15.930Z,6.97
2022-11-28T01:51:15.925Z,7.13
2022-11-28T01:52:15.919Z,6.99
2022-11-28T01:53:15.909Z,7.02
2022-11-28T01:54:15.911Z,6.99
2022-11-28T01:55:15.900Z,7.02
2022-11-28T01:56:15.897Z,6.97
2022-11-28T01:57:16.012Z,7.05
2022-11-28T01:58:15.889Z,7.12
2022-11-28T01:59:15.884Z,7.02
2022-11-28T02:00:15.882Z,7.05
2022-11-28T02:01:15.951Z,7.05
2022-11-28T02:02:15.924Z,7.05
2022-11-28T02:03:15.862Z,7.02
2022-11-28T02:04:15.863Z,6.98
2022-11-28T02:05:15.857Z,6.92
2022-11-28T02:06:15.858Z,6.91
2022-11-28T02:07:15.873Z,6.88
2022-11-28T02:08:15.845Z,7.02
2022-11-28T02:09:15.839Z,6.98
2022-11-28T02:10:15.837Z,7.09
2022-11-28T02:11:15.830Z,6.98
2022-11-28T02:12:15.827Z,6.87
2022-11-28T02:13:15.931Z,7.06
2022-11-28T02:14:15.820Z,6.89
2022-11-28T02:15:15.811Z,6.97
2022-11-28T02:16:15.955Z,6.88
2022-11-28T02:17:15.799Z,6.89
2022-11-28T02:18:15.800Z,6.85
2022-11-28T02:19:15.795Z,6.85
2022-11-28T02:20:15.796Z,6.91
2022-11-28T02:21:15.782Z,6.91
2022-11-28T02:22:15.782Z,6.99
2022-11-28T02:23:15.770Z,6.95
2022-11-28T02:24:15.769Z,6.97
2022-11-28T02:25:15.764Z,6.89
2022-11-28T02:26:15.767Z,6.87
2022-11-28T02:27:15.754Z,6.88
2022-11-28T02:28:15.755Z,6.87
2022-11-28T02:29:15.856Z,7.05
2022-11-28T02:30:15.744Z,6.85
2022-11-28T02:31:15.802Z,7.10
2022-11-28T02:32:15.734Z,7.03
2022-11-28T02:33:15.727Z,6.98
2022-11-28T02:34:15.731Z,6.88
2022-11-28T02:35:15.717Z,6.87
2022-11-28T02:36:15.718Z,7.09
2022-11-28T02:37:15.707Z,7.24
2022-11-28T02:38:15.709Z,7.03
2022-11-28T02:39:15.700Z,7.06
2022-11-28T02:40:15.699Z,7.09
2022-11-28T02:41:15.693Z,7.13
2022-11-28T02:42:15.687Z,7.09
2022-11-28T02:43:15.683Z,7.13
2022-11-28T02:44:15.680Z,7.12
2022-11-28T02:45:15.787Z,7.16
2022-11-28T02:46:15.725Z,7.12
2022-11-28T02:47:15.676Z,7.21
2022-11-28T02:48:15.662Z,7.17
2022-11-28T02:49:15.654Z,7.13
2022-11-28T02:50:15.650Z,7.09
2022-11-28T02:51:15.642Z,7.02
2022-11-28T02:52:15.642Z,6.95
2022-11-28T02:53:15.636Z,6.95
2022-11-28T02:54:15.630Z,7.13
2022-11-28T02:55:15.626Z,7.07
2022-11-28T02:56:15.622Z,6.98
2022-11-28T02:57:15.615Z,6.97
2022-11-28T02:58:15.615Z,7.13
2022-11-28T02:59:15.604Z,7.13
2022-11-28T03:00:17.874Z,6.98
2022-11-28T03:01:15.812Z,7.03
2022-11-28T03:02:15.656Z,6.88
2022-11-28T03:03:15.618Z,6.89
2022-11-28T03:04:15.592Z,6.94
2022-11-28T03:05:15.580Z,6.88
2022-11-28T03:06:15.575Z,7.12
2022-11-28T03:07:15.617Z,7.07
2022-11-28T03:08:15.568Z,6.97
2022-11-28T03:09:15.561Z,6.85
2022-11-28T03:10:15.561Z,6.85
2022-11-28T03:11:15.550Z,6.91
2022-11-28T03:12:15.557Z,6.89
2022-11-28T03:13:15.542Z,6.84
2022-11-28T03:14:15.538Z,6.81
2022-11-28T03:15:15.535Z,6.84
2022-11-28T03:16:15.588Z,6.80
2022-11-28T03:17:15.638Z,6.87
2022-11-28T03:18:15.522Z,6.91
2022-11-28T03:19:15.515Z,6.69
2022-11-28T03:20:15.511Z,6.80
2022-11-28T03:21:15.507Z,6.88
2022-11-28T03:22:15.506Z,6.77
2022-11-28T03:23:15.495Z,6.79
2022-11-28T03:24:15.509Z,6.69
2022-11-28T03:25:15.486Z,6.77
2022-11-28T03:26:15.481Z,6.77
2022-11-28T03:27:15.476Z,6.73
2022-11-28T03:28:15.474Z,6.64
2022-11-28T03:29:15.468Z,6.64
2022-11-28T03:30:15.473Z,6.69
2022-11-28T03:31:15.531Z,6.66
2022-11-28T03:32:15.464Z,6.73
2022-11-28T03:33:15.571Z,6.71
2022-11-28T03:34:15.446Z,6.79
2022-11-28T03:35:15.441Z,6.69
2022-11-28T03:36:15.437Z,6.66
2022-11-28T03:37:15.430Z,6.69
2022-11-28T03:38:15.431Z,6.76
2022-11-28T03:39:15.429Z,6.76
2022-11-28T03:40:15.426Z,6.71
2022-11-28T03:41:15.412Z,6.77
2022-11-28T03:42:15.415Z,6.77
2022-11-28T03:43:15.404Z,6.79
2022-11-28T03:44:15.401Z,6.71
2022-11-28T03:45:15.398Z,6.80
2022-11-28T03:46:15.413Z,6.81
2022-11-28T03:47:15.384Z,6.89
2022-11-28T03:48:15.387Z,6.77
2022-11-28T03:49:15.488Z,6.74
2022-11-28T03:50:15.377Z,6.77
2022-11-28T03:51:15.367Z,6.70
2022-11-28T03:52:15.367Z,6.77
2022-11-28T03:53:15.353Z,6.81
2022-11-28T03:54:15.354Z,6.81
2022-11-28T03:55:15.342Z,6.79
2022-11-28T03:56:15.369Z,6.89
2022-11-28T03:57:15.337Z,6.85
2022-11-28T03:58:15.335Z,6.74
2022-11-28T03:59:15.324Z,6.80
2022-11-28T04:00:15.327Z,6.80
2022-11-28T04:01:15.351Z,6.87
2022-11-28T04:02:15.318Z,6.97
2022-11-28T04:03:15.361Z,6.89
2022-11-28T04:04:15.305Z,6.81
2022-11-28T04:05:15.427Z,6.85
2022-11-28T04:06:15.305Z,6.80
2022-11-28T04:07:15.352Z,6.71
2022-11-28T04:08:15.291Z,6.81
2022-11-28T04:09:15.278Z,6.67
2022-11-28T04:10:15.275Z,6.67
2022-11-28T04:11:15.275Z,6.71
2022-11-28T04:12:15.266Z,6.66
2022-11-28T04:13:15.270Z,6.66
2022-11-28T04:14:15.261Z,6.69
2022-11-28T04:15:15.258Z,6.85
2022-11-28T04:16:15.300Z,6.73
2022-11-28T04:17:15.248Z,6.73
2022-11-28T04:18:15.241Z,6.66
2022-11-28T04:19:15.242Z,6.88
2022-11-28T04:20:15.234Z,6.84
2022-11-28T04:21:15.345Z,6.88
2022-11-28T04:22:15.218Z,6.92
2022-11-28T04:23:15.219Z,6.81
2022-11-28T04:24:15.208Z,6.81
2022-11-28T04:25:15.206Z,6.73
2022-11-28T04:26:15.201Z,6.70
2022-11-28T04:27:15.202Z,6.79
2022-11-28T04:28:15.192Z,6.70
2022-11-28T04:29:15.190Z,6.58
2022-11-28T04:30:15.182Z,6.69
2022-11-28T04:31:15.214Z,6.66
2022-11-28T04:32:15.178Z,6.73
2022-11-28T04:33:15.172Z,6.62
2022-11-28T04:34:15.164Z,6.67
2022-11-28T04:35:15.162Z,6.58
2022-11-28T04:36:15.152Z,6.52
2022-11-28T04:37:15.263Z,6.67
2022-11-28T04:38:15.149Z,6.51
2022-11-28T04:39:15.143Z,6.56
2022-11-28T04:40:15.137Z,6.66
2022-11-28T04:41:15.135Z,6.62
2022-11-28T04:42:15.131Z,6.62
2022-11-28T04:43:15.130Z,6.74
2022-11-28T04:44:15.123Z,6.61
2022-11-28T04:45:15.115Z,6.71
2022-11-28T04:46:15.206Z,6.62
2022-11-28T04:47:15.104Z,6.67
2022-11-28T04:48:15.095Z,6.67
2022-11-28T04:49:15.098Z,6.70
2022-11-28T04:50:15.101Z,6.55
2022-11-28T04:51:15.104Z,6.69
2022-11-28T04:52:15.077Z,6.67
2022-11-28T04:53:15.213Z,6.62
2022-11-28T04:54:15.082Z,6.62
2022-11-28T04:55:15.071Z,6.69
2022-11-28T04:56:15.061Z,6.79
2022-11-28T04:57:07.406Z,6.70
2022-11-28T04:58:07.399Z,6.64
2022-11-28T04:59:07.390Z,6.71
2022-11-28T05:00:07.385Z,6.71
2022-11-28T05:01:07.460Z,6.79
2022-11-28T05:02:07.441Z,6.62
2022-11-28T05:03:07.373Z,6.79
2022-11-28T05:04:07.363Z,6.79
2022-11-28T05:05:07.361Z,6.66
2022-11-28T05:06:07.359Z,6.61
2022-11-28T05:07:07.360Z,6.56
2022-11-28T05:08:07.347Z,6.64
2022-11-28T05:09:07.461Z,6.61
2022-11-28T05:10:07.337Z,6.73
2022-11-28T05:11:07.337Z,6.73
2022-11-28T05:12:07.332Z,6.66
2022-11-28T05:13:07.326Z,6.67
2022-11-28T05:14:07.320Z,6.71
2022-11-28T05:15:07.322Z,6.73
2022-11-28T05:16:07.391Z,6.73
2022-11-28T05:17:07.314Z,6.64
2022-11-28T05:18:07.295Z,6.74
2022-11-28T05:19:07.294Z,6.70
2022-11-28T05:20:07.296Z,6.74
2022-11-28T05:21:07.287Z,6.85
2022-11-28T05:22:07.285Z,6.81
2022-11-28T05:23:07.277Z,6.79
2022-11-28T05:24:07.270Z,6.79
2022-11-28T05:25:07.295Z,6.66
2022-11-28T05:26:07.267Z,6.80
2022-11-28T05:27:07.257Z,6.85
2022-11-28T05:28:07.249Z,6.76
2022-11-28T05:29:07.255Z,6.87
2022-11-28T05:30:07.245Z,6.81
2022-11-28T05:31:07.288Z,6.79
2022-11-28T05:32:07.249Z,6.74
2022-11-28T05:33:07.239Z,6.69
2022-11-28T05:34:07.222Z,6.79
2022-11-28T05:35:07.224Z,6.70
2022-11-28T05:36:12.359Z,6.79
2022-11-28T05:37:07.212Z,6.87
2022-11-28T05:38:13.290Z,6.81
2022-11-28T05:39:07.205Z,6.80
2022-11-28T05:40:07.203Z,6.91
2022-11-28T05:41:07.316Z,6.97
2022-11-28T05:42:07.186Z,7.02
2022-11-28T05:43:07.188Z,6.89
2022-11-28T05:44:07.175Z,6.91
2022-11-28T05:45:07.179Z,6.92
2022-11-28T05:46:07.233Z,6.88
2022-11-28T05:47:07.164Z,6.88
2022-11-28T05:48:07.158Z,6.91
2022-11-28T05:49:07.157Z,6.85
2022-11-28T05:50:07.147Z,6.91
2022-11-28T05:51:07.144Z,6.95
2022-11-28T05:52:07.143Z,6.85
2022-11-28T05:53:07.140Z,6.85
2022-11-28T05:54:07.132Z,6.77
2022-11-28T05:55:07.131Z,6.80
2022-11-28T05:56:07.120Z,6.91
2022-11-28T05:57:07.240Z,7.02
2022-11-28T05:58:07.110Z,6.87
2022-11-28T05:59:07.113Z,6.95
2022-11-28T06:00:07.106Z,7.06
2022-11-28T06:01:07.105Z,6.98
2022-11-28T06:02:07.164Z,6.99
2022-11-28T06:03:07.087Z,7.02
2022-11-28T06:04:07.178Z,7.05
2022-11-28T06:05:27.226Z,6.88
2022-11-28T06:06:07.074Z,6.81
2022-11-28T06:07:07.079Z,6.77
2022-11-28T06:08:07.064Z,6.79
2022-11-28T06:09:07.064Z,6.88
2022-11-28T06:10:07.059Z,6.95
2022-11-28T06:11:07.062Z,6.80
2022-11-28T06:12:07.048Z,6.89
2022-11-28T06:13:07.179Z,6.92
2022-11-28T06:14:07.040Z,6.81
2022-11-28T06:15:07.038Z,6.80
2022-11-28T06:16:07.093Z,6.77
2022-11-28T06:17:07.026Z,6.84
2022-11-28T06:18:07.020Z,6.77
2022-11-28T06:19:07.017Z,6.66
2022-11-28T06:20:07.011Z,6.81
2022-11-28T06:21:07.010Z,6.77
2022-11-28T06:22:07.002Z,6.70
2022-11-28T06:23:07.000Z,6.61
2022-11-28T06:24:06.997Z,6.70
2022-11-28T06:25:06.993Z,6.64
2022-11-28T06:26:06.983Z,6.77
2022-11-28T06:27:06.984Z,6.70
2022-11-28T06:28:06.983Z,6.67
2022-11-28T06:29:07.086Z,6.74
2022-11-28T06:30:06.964Z,6.66
2022-11-28T06:31:06.967Z,6.61
2022-11-28T06:32:07.019Z,6.62
2022-11-28T06:33:06.953Z,6.46
2022-11-28T06:34:06.945Z,6.48
2022-11-28T06:35:06.945Z,6.62
2022-11-28T06:36:06.948Z,6.56
2022-11-28T06:37:06.935Z,6.58
2022-11-28T06:38:11.438Z,6.66
2022-11-28T06:39:06.930Z,6.73
2022-11-28T06:40:06.920Z,6.66
2022-11-28T06:41:06.918Z,6.70
2022-11-28T06:42:06.919Z,6.71
2022-11-28T06:43:06.915Z,6.77
2022-11-28T06:44:06.901Z,6.81
2022-11-28T06:45:07.018Z,6.88
2022-11-28T06:46:06.988Z,6.69
2022-11-28T06:47:06.891Z,6.61
2022-11-28T06:48:06.882Z,6.67
2022-11-28T06:49:06.878Z,6.59
2022-11-28T06:50:06.876Z,6.70
2022-11-28T06:51:06.875Z,6.54
2022-11-28T06:52:06.867Z,6.51
2022-11-28T06:53:06.862Z,6.58
2022-11-28T06:54:06.853Z,6.69
2022-11-28T06:55:06.852Z,6.70
2022-11-28T06:56:06.850Z,6.62
2022-11-28T06:57:06.840Z,6.49
2022-11-28T06:58:06.836Z,6.49
2022-11-28T06:59:06.839Z,6.44
2022-11-28T07:00:06.828Z,6.64
2022-11-28T07:01:06.997Z,6.64
2022-11-28T07:02:08.017Z,6.69
2022-11-28T07:03:06.816Z,6.51
2022-11-28T07:04:06.809Z,6.56
2022-11-28T07:05:06.804Z,6.46
2022-11-28T07:06:06.797Z,6.61
2022-11-28T07:07:06.798Z,6.67
2022-11-28T07:08:06.862Z,6.67
2022-11-28T07:09:06.792Z,6.70
2022-11-28T07:10:06.785Z,6.71
2022-11-28T07:11:06.776Z,6.76
2022-11-28T07:12:06.774Z,6.76
2022-11-28T07:13:06.768Z,6.70
2022-11-28T07:14:06.759Z,6.59
2022-11-28T07:15:06.759Z,6.66
2022-11-28T07:16:06.938Z,6.56
2022-11-28T07:17:06.967Z,6.66
2022-11-28T07:18:06.741Z,6.70
2022-11-28T07:19:06.739Z,6.70
2022-11-28T07:20:06.750Z,6.67
2022-11-28T07:21:06.732Z,6.62
2022-11-28T07:22:06.737Z,6.77
2022-11-28T07:23:06.724Z,6.70
2022-11-28T07:24:06.715Z,6.59
2022-11-28T07:25:06.711Z,6.79
2022-11-28T07:26:06.702Z,6.62
2022-11-28T07:27:06.703Z,6.71
2022-11-28T07:28:06.694Z,6.77
2022-11-28T07:29:06.699Z,6.66
2022-11-28T07:30:06.686Z,6.64
2022-11-28T07:31:06.684Z,6.56
2022-11-28T07:32:06.760Z,6.67
2022-11-28T07:33:06.790Z,6.62
2022-11-28T07:34:06.669Z,6.64
2022-11-28T07:35:06.662Z,6.70
2022-11-28T07:36:06.659Z,6.69
2022-11-28T07:37:06.655Z,6.76
2022-11-28T07:38:06.650Z,6.67
2022-11-28T07:39:06.650Z,6.69
2022-11-28T07:40:06.645Z,6.71
2022-11-28T07:41:06.638Z,6.80
2022-11-28T07:42:06.627Z,6.88
2022-11-28T07:43:06.633Z,6.81
2022-11-28T07:44:06.632Z,6.88
2022-11-28T07:45:06.627Z,6.87
2022-11-28T07:46:06.673Z,6.97
2022-11-28T07:47:06.749Z,7.03
2022-11-28T07:48:06.606Z,6.98
2022-11-28T07:49:06.621Z,6.94
2022-11-28T07:50:06.594Z,6.92
2022-11-28T07:51:06.590Z,6.94
2022-11-28T07:52:06.581Z,6.99
2022-11-28T07:53:07.444Z,6.98
2022-11-28T07:54:06.577Z,6.99
2022-11-28T07:55:06.587Z,6.98
2022-11-28T07:56:06.563Z,6.98
2022-11-28T07:57:13.850Z,6.97
2022-11-28T07:58:06.557Z,6.92
2022-11-28T07:59:06.562Z,6.88
2022-11-28T08:00:06.550Z,6.79
2022-11-28T08:01:06.543Z,6.88
2022-11-28T08:02:06.615Z,6.81
2022-11-28T08:03:06.534Z,6.79
2022-11-28T08:04:06.578Z,6.94
2022-11-28T08:05:06.569Z,6.88
2022-11-28T08:06:06.522Z,6.98
2022-11-28T08:07:06.519Z,6.94
2022-11-28T08:08:06.585Z,6.88
2022-11-28T08:09:06.509Z,7.09
2022-11-28T08:10:06.497Z,7.06
2022-11-28T08:11:06.506Z,7.24
2022-11-28T08:13:06.485Z,7.24
2022-11-28T08:14:06.480Z,7.12
2022-11-28T08:15:06.483Z,7.13
2022-11-28T08:16:06.792Z,7.05
2022-11-28T08:17:06.536Z,6.95
2022-11-28T08:18:06.464Z,6.91
2022-11-28T08:19:06.462Z,7.07
2022-11-28T08:20:06.455Z,7.12
2022-11-28T08:21:06.486Z,7.15
2022-11-28T08:22:06.441Z,7.30
2022-11-28T08:23:06.445Z,7.24
2022-11-28T08:24:06.434Z,7.35
2022-11-28T08:25:06.450Z,7.37
2022-11-28T08:26:06.427Z,7.40
2022-11-28T08:27:06.436Z,7.40
2022-11-28T08:28:06.419Z,7.50
2022-11-28T08:29:06.413Z,7.50
2022-11-28T08:30:06.408Z,7.42
2022-11-28T08:31:06.462Z,7.40
2022-11-28T08:32:06.411Z,7.46
2022-11-28T08:33:06.398Z,7.35
2022-11-28T08:34:06.390Z,7.46
2022-11-28T08:35:06.390Z,7.50
2022-11-28T08:36:06.381Z,7.57
2022-11-28T08:37:06.413Z,7.61
2022-11-28T08:38:06.372Z,7.72
2022-11-28T08:40:06.366Z,7.79
2022-11-28T08:41:06.378Z,7.71
2022-11-28T08:42:06.356Z,7.79
2022-11-28T08:43:06.355Z,7.74
2022-11-28T08:44:06.348Z,7.74
2022-11-28T08:45:06.343Z,7.57
2022-11-28T08:46:06.415Z,7.72
2022-11-28T08:47:06.339Z,7.80
2022-11-28T08:48:06.331Z,7.87
2022-11-28T08:49:06.326Z,7.97
2022-11-28T08:50:06.332Z,8.00
2022-11-28T08:51:06.320Z,7.85
2022-11-28T08:52:06.315Z,8.00
2022-11-28T08:53:07.994Z,8.05
2022-11-28T08:54:06.310Z,7.95
2022-11-28T08:55:06.305Z,8.15
2022-11-28T08:56:06.299Z,7.95
2022-11-28T08:57:06.293Z,7.85
2022-11-28T08:58:06.286Z,8.04
2022-11-28T08:59:06.285Z,8.02
2022-11-28T09:00:06.286Z,8.04
2022-11-28T09:01:06.363Z,7.95
2022-11-28T09:02:06.278Z,7.93
2022-11-28T09:03:06.274Z,7.98
2022-11-28T09:04:06.316Z,7.85
2022-11-28T09:05:06.258Z,7.83
2022-11-28T09:06:06.251Z,7.72
2022-11-28T09:07:06.361Z,7.85
2022-11-28T09:08:10.275Z,7.87
2022-11-28T09:09:06.266Z,8.02
2022-11-28T09:10:06.233Z,8.07
2022-11-28T09:11:06.238Z,8.04
2022-11-28T09:12:06.239Z,8.05
2022-11-28T09:13:06.226Z,8.08
2022-11-28T09:14:06.228Z,8.02
2022-11-28T09:15:06.220Z,7.82
2022-11-28T09:16:06.519Z,7.75
2022-11-28T09:17:06.242Z,7.97
2022-11-28T09:18:06.214Z,7.93
2022-11-28T09:19:06.199Z,7.80
2022-11-28T09:20:06.203Z,7.97
2022-11-28T09:21:06.193Z,8.08
2022-11-28T09:22:06.196Z,8.00
2022-11-28T09:23:06.185Z,8.02
2022-11-28T09:24:06.188Z,7.93
2022-11-28T09:25:06.199Z,7.98
2022-11-28T09:26:06.179Z,8.10
2022-11-28T09:27:06.170Z,8.10
2022-11-28T09:28:06.170Z,8.11
2022-11-28T09:29:06.163Z,8.10
2022-11-28T09:30:06.163Z,7.97
2022-11-28T09:31:06.233Z,8.01
2022-11-28T09:32:06.153Z,8.04
2022-11-28T09:33:06.146Z,8.15
2022-11-28T09:34:06.143Z,8.11
2022-11-28T09:35:06.138Z,8.29
2022-11-28T09:36:06.138Z,8.26
2022-11-28T09:37:06.128Z,8.12
2022-11-28T09:38:06.126Z,8.34
2022-11-28T09:39:06.128Z,8.23
2022-11-28T09:40:13.187Z,8.30
2022-11-28T09:41:06.163Z,8.40
2022-11-28T09:42:06.117Z,8.47
2022-11-28T09:43:06.114Z,8.36
2022-11-28T09:44:06.106Z,8.55
2022-11-28T09:45:06.098Z,8.76
2022-11-28T09:46:06.268Z,8.74
2022-11-28T09:47:06.092Z,8.65
2022-11-28T09:48:06.090Z,8.58
2022-11-28T09:49:06.080Z,8.61
2022-11-28T09:50:06.081Z,8.68
2022-11-28T09:51:06.072Z,8.63
2022-11-28T09:52:06.143Z,8.79
2022-11-28T09:53:06.067Z,8.71
2022-11-28T09:54:06.078Z,8.65
2022-11-28T09:55:06.056Z,8.62
2022-11-28T09:56:06.061Z,8.43
2022-11-28T09:57:06.077Z,8.41
2022-11-28T09:58:06.050Z,8.58
2022-11-28T09:59:06.047Z,8.61
2022-11-28T10:00:06.044Z,8.56
2022-11-28T10:01:06.033Z,8.73
2022-11-28T10:02:06.035Z,8.68
2022-11-28T10:03:06.042Z,8.62
2022-11-28T10:04:06.200Z,8.74
2022-11-28T10:05:06.119Z,8.80
2022-11-28T10:06:06.020Z,8.87
2022-11-28T10:07:06.016Z,8.98
2022-11-28T10:08:06.088Z,8.84
2022-11-28T10:09:06.008Z,8.84
2022-11-28T10:10:06.006Z,8.99
2022-11-28T10:11:06.004Z,8.84
2022-11-28T10:12:06.003Z,8.84
2022-11-28T10:13:06.015Z,8.84
2022-11-28T10:14:08.380Z,8.68
2022-11-28T10:15:05.988Z,8.73
2022-11-28T10:16:05.986Z,8.77
2022-11-28T10:17:06.006Z,8.89
2022-11-28T10:18:05.988Z,9.01
2022-11-28T10:19:05.969Z,8.96
2022-11-28T10:20:05.972Z,9.01
2022-11-28T10:21:05.972Z,9.23
2022-11-28T10:22:05.962Z,9.31
2022-11-28T10:23:05.958Z,9.28
2022-11-28T10:24:05.961Z,9.24
2022-11-28T10:25:05.955Z,9.14
2022-11-28T10:26:05.949Z,9.20
2022-11-28T10:27:05.942Z,9.33
2022-11-28T10:28:05.943Z,9.35
2022-11-28T10:29:06.005Z,9.29
2022-11-28T10:30:05.935Z,9.46
2022-11-28T10:31:06.003Z,9.43
2022-11-28T10:32:05.926Z,9.31
2022-11-28T10:33:05.919Z,9.23
2022-11-28T10:34:05.919Z,9.04
2022-11-28T10:35:05.917Z,9.26
2022-11-28T10:36:05.922Z,9.29
2022-11-28T10:37:05.908Z,9.29
2022-11-28T10:38:05.910Z,9.17
2022-11-28T10:39:09.901Z,9.15
2022-11-28T10:40:05.905Z,9.14
2022-11-28T10:41:05.898Z,9.01
2022-11-28T10:42:05.892Z,9.10
2022-11-28T10:43:05.890Z,9.17
2022-11-28T10:44:05.887Z,9.29
2022-11-28T10:45:05.923Z,9.38
2022-11-28T10:46:05.959Z,9.29
2022-11-28T10:47:05.874Z,9.26
2022-11-28T10:48:37.121Z,9.20
2022-11-28T10:49:05.870Z,9.18
2022-11-28T10:50:05.869Z,9.05
2022-11-28T10:51:05.865Z,9.21
2022-11-28T10:52:05.864Z,9.20
2022-11-28T10:53:05.855Z,9.26
2022-11-28T10:54:05.856Z,9.51
2022-11-28T10:55:05.850Z,9.46
2022-11-28T10:56:11.108Z,9.36
2022-11-28T10:57:05.852Z,9.50
2022-11-28T10:58:06.234Z,9.46
2022-11-28T10:59:05.837Z,9.48
2022-11-28T11:00:05.840Z,9.39
2022-11-28T11:01:05.898Z,9.42
2022-11-28T11:02:05.881Z,9.38
2022-11-28T11:03:05.822Z,9.53
2022-11-28T11:04:05.858Z,9.50
2022-11-28T11:05:05.889Z,9.48
2022-11-28T11:06:05.823Z,9.31
2022-11-28T11:07:11.244Z,9.15
2022-11-28T11:08:05.883Z,9.32
2022-11-28T11:09:05.802Z,9.46
2022-11-28T11:10:05.808Z,9.40
2022-11-28T11:11:05.802Z,9.39
2022-11-28T11:12:05.798Z,9.54
2022-11-28T11:13:05.797Z,9.48
2022-11-28T11:14:05.814Z,9.53
2022-11-28T11:15:05.787Z,9.47
2022-11-28T11:16:05.846Z,9.53
2022-11-28T11:17:05.806Z,9.51
2022-11-28T11:18:05.795Z,9.56
2022-11-28T11:19:05.778Z,9.47
2022-11-28T11:20:05.776Z,9.64
2022-11-28T11:21:05.768Z,9.48
2022-11-28T11:22:05.770Z,9.36
2022-11-28T11:23:05.775Z,9.42
2022-11-28T11:24:05.760Z,9.51
2022-11-28T11:25:05.753Z,9.46
2022-11-28T11:26:05.754Z,9.54
2022-11-28T11:27:05.761Z,9.53
2022-11-28T11:28:05.752Z,9.72
2022-11-28T11:29:05.739Z,9.69
2022-11-28T11:30:05.746Z,9.74
2022-11-28T11:31:05.885Z,9.81
2022-11-28T11:32:05.741Z,9.81
2022-11-28T11:33:05.750Z,9.90
2022-11-28T11:34:05.735Z,9.90
2022-11-28T11:35:05.726Z,9.94
2022-11-28T11:36:05.725Z,9.81
2022-11-28T11:37:05.716Z,9.75
2022-11-28T11:38:05.716Z,9.96
2022-11-28T11:39:05.708Z,9.89
2022-11-28T11:40:05.711Z,9.89
2022-11-28T11:41:05.704Z,9.83
2022-11-28T11:42:05.704Z,9.69
2022-11-28T11:43:05.713Z,9.64
2022-11-28T11:44:05.705Z,9.86
2022-11-28T11:45:05.693Z,10.05
2022-11-28T11:46:05.780Z,10.05
2022-11-28T11:47:05.691Z,10.07
2022-11-28T11:48:05.688Z,9.90
2022-11-28T11:49:05.704Z,9.83
2022-11-28T11:50:05.678Z,9.76
2022-11-28T11:51:05.675Z,9.81
2022-11-28T11:52:05.680Z,9.83
2022-11-28T11:53:05.666Z,9.81
2022-11-28T11:54:05.669Z,9.81
2022-11-28T11:55:05.664Z,9.79
2022-11-28T11:56:05.666Z,9.84
2022-11-28T11:57:31.416Z,9.86
2022-11-28T11:58:06.156Z,9.69
2022-11-28T11:59:05.648Z,9.66
2022-11-28T12:00:05.651Z,9.81
2022-11-28T12:01:05.645Z,9.75
2022-11-28T12:02:05.723Z,9.54
2022-11-28T12:03:05.759Z,9.74
2022-11-28T12:04:23.880Z,9.60
2022-11-28T12:05:05.707Z,9.66
2022-11-28T12:06:14.214Z,9.58
2022-11-28T12:07:05.628Z,9.81
2022-11-28T12:08:05.719Z,9.90
2022-11-28T12:09:05.627Z,9.76
2022-11-28T12:10:05.626Z,9.81
2022-11-28T12:11:05.615Z,9.79
2022-11-28T12:12:05.615Z,10.02
2022-11-28T12:13:05.608Z,9.97
2022-11-28T12:14:05.615Z,9.79
2022-11-28T12:15:05.606Z,9.86
2022-11-28T12:16:05.689Z,9.81
2022-11-28T12:17:25.729Z,9.72
2022-11-28T12:18:05.597Z,9.65
2022-11-28T12:19:05.594Z,9.78
2022-11-28T12:20:05.593Z,9.78
2022-11-28T12:21:05.620Z,9.71
2022-11-28T12:22:05.586Z,9.71
2022-11-28T12:23:05.579Z,9.68
2022-11-28T12:24:05.578Z,9.60
2022-11-28T12:25:05.572Z,9.65
2022-11-28T12:26:05.572Z,9.58
2022-11-28T12:27:05.576Z,9.71
2022-11-28T12:28:05.573Z,9.48
2022-11-28T12:29:05.565Z,9.53
2022-11-28T12:30:05.562Z,9.39
2022-11-28T12:31:05.657Z,9.31
2022-11-28T12:32:05.560Z,9.33
2022-11-28T12:33:05.561Z,9.29
2022-11-28T12:34:05.551Z,9.46
2022-11-28T12:35:05.850Z,9.33
2022-11-28T12:36:05.551Z,9.23
2022-11-28T12:37:05.558Z,9.20
2022-11-28T12:38:12.755Z,9.26
2022-11-28T12:39:05.532Z,9.28
2022-11-28T12:40:05.536Z,9.29
2022-11-28T12:41:05.530Z,9.38
2022-11-28T12:42:05.534Z,9.20
2022-11-28T12:43:05.525Z,9.23
2022-11-28T12:44:05.524Z,9.32
2022-11-28T12:45:05.517Z,9.50
2022-11-28T12:46:05.561Z,9.51
2022-11-28T12:47:05.512Z,9.51
2022-11-28T12:48:05.511Z,9.47
2022-11-28T12:49:05.607Z,9.36
2022-11-28T12:50:05.508Z,9.28
2022-11-28T12:51:05.495Z,9.18
2022-11-28T12:52:05.499Z,9.14
2022-11-28T12:53:05.515Z,9.23
2022-11-28T12:54:05.488Z,9.14
2022-11-28T12:55:05.494Z,9.14
2022-11-28T12:56:05.489Z,9.26
2022-11-28T12:57:05.485Z,9.13
2022-11-28T12:58:07.104Z,9.38
2022-11-28T12:59:05.530Z,9.29
2022-11-28T13:00:09.033Z,9.40
2022-11-28T13:01:05.471Z,9.28
2022-11-28T13:02:09.755Z,9.20
2022-11-28T13:03:05.542Z,9.26
2022-11-28T13:04:05.470Z,9.20
2022-11-28T13:05:05.454Z,9.18
2022-11-28T13:06:05.459Z,9.08
2022-11-28T13:07:05.456Z,9.11
2022-11-28T13:08:05.451Z,9.20
2022-11-28T13:09:05.477Z,9.15
2022-11-28T13:10:05.447Z,9.11
2022-11-28T13:11:05.438Z,9.05
2022-11-28T13:12:05.442Z,8.87
2022-11-28T13:13:05.429Z,8.86
2022-11-28T13:14:05.434Z,8.94
2022-11-28T13:15:05.436Z,9.01
2022-11-28T13:16:05.497Z,8.89
2022-11-28T13:17:05.415Z,8.81
2022-11-28T13:18:05.427Z,8.84
2022-11-28T13:19:05.419Z,9.01
2022-11-28T13:20:05.415Z,9.04